createdAt,value
2022-08-09T00:02:57.962Z,21.70
2022-08-09T00:08:02.454Z,21.70
2022-08-09T00:13:16.647Z,21.60
2022-08-09T00:18:22.345Z,21.50
2022-08-09T00:23:56.939Z,21.40
2022-08-09T00:28:52.672Z,21.40
2022-08-09T00:33:57.967Z,21.30
2022-08-09T00:39:01.196Z,21.30
2022-08-09T00:44:25.526Z,21.20
2022-08-09T00:49:32.191Z,21.20
2022-08-09T00:54:36.642Z,21.10
2022-08-09T00:59:46.877Z,20.90
2022-08-09T01:05:03.273Z,20.80
2022-08-09T01:10:13.303Z,20.70
2022-08-09T01:15:20.407Z,20.60
2022-08-09T01:20:36.039Z,20.50
2022-08-09T01:26:04.183Z,20.40
2022-08-09T01:32:29.844Z,20.40
2022-08-09T01:36:37.581Z,20.30
2022-08-09T01:41:55.998Z,20.30
2022-08-09T01:47:07.066Z,20.20
2022-08-09T01:52:19.001Z,20.10
2022-08-09T01:57:28.380Z,20.10
2022-08-09T02:02:37.125Z,20.00
2022-08-09T02:08:39.895Z,20.00
2022-08-09T02:13:12.779Z,20.00
2022-08-09T02:18:20.738Z,20.00
2022-08-09T02:23:39.562Z,19.90
2022-08-09T02:28:47.044Z,19.90
2022-08-09T02:34:06.480Z,19.80
2022-08-09T02:39:34.080Z,19.80
2022-08-09T02:44:47.374Z,19.70
2022-08-09T02:50:05.725Z,19.70
2022-08-09T02:55:20.878Z,19.60
2022-08-09T03:00:26.346Z,19.40
2022-08-09T03:05:34.704Z,19.30
2022-08-09T03:10:39.448Z,19.20
2022-08-09T03:16:06.221Z,19.20
2022-08-09T03:21:12.983Z,19.20
2022-08-09T03:26:19.746Z,19.20
2022-08-09T03:31:42.651Z,19.10
2022-08-09T03:37:02.433Z,19.00
2022-08-09T03:42:30.767Z,18.90
2022-08-09T03:47:36.677Z,18.80
2022-08-09T03:52:46.136Z,18.70
2022-08-09T03:57:57.450Z,18.60
2022-08-09T04:03:08.050Z,18.50
2022-08-09T04:08:16.906Z,18.50
2022-08-09T04:13:23.630Z,18.50
2022-08-09T04:18:43.323Z,18.50
2022-08-09T04:23:53.837Z,18.40
2022-08-09T04:29:05.208Z,18.50
2022-08-09T04:34:13.272Z,18.50
2022-08-09T04:39:23.548Z,18.40
2022-08-09T04:44:27.471Z,18.40
2022-08-09T04:49:52.156Z,18.40
2022-08-09T04:54:59.468Z,18.30
2022-08-09T05:00:05.182Z,18.30
2022-08-09T05:05:09.783Z,18.30
2022-08-09T05:10:14.873Z,18.30
2022-08-09T05:15:24.544Z,18.40
2022-08-09T05:20:41.676Z,18.40
2022-08-09T05:25:51.090Z,18.40
2022-08-09T05:30:54.462Z,18.50
2022-08-09T05:35:59.108Z,18.50
2022-08-09T05:41:05.625Z,18.60
2022-08-09T05:46:15.888Z,18.60
2022-08-09T05:51:42.345Z,18.70
2022-08-09T05:56:55.173Z,18.80
2022-08-09T06:01:59.856Z,18.90
2022-08-09T06:07:05.838Z,19.00
2022-08-09T06:12:10.843Z,19.20
2022-08-09T06:17:14.663Z,19.30
2022-08-09T06:22:20.715Z,19.50
2022-08-09T06:27:41.365Z,19.60
2022-08-09T06:33:00.647Z,19.80
2022-08-09T06:38:09.329Z,20.00
2022-08-09T06:43:15.652Z,20.20
2022-08-09T06:48:30.100Z,20.40
2022-08-09T06:53:38.455Z,20.50
2022-08-09T07:00:50.384Z,20.80
2022-08-09T07:04:06.472Z,20.90
2022-08-09T07:09:53.053Z,21.20
2022-08-09T07:14:38.686Z,21.40
2022-08-09T07:19:41.890Z,21.70
2022-08-09T07:24:49.451Z,21.90
2022-08-09T07:29:57.116Z,22.10
2022-08-09T07:35:02.752Z,22.40
2022-08-09T07:40:17.451Z,22.70
2022-08-09T07:45:37.401Z,22.90
2022-08-09T07:50:43.334Z,23.20
2022-08-09T07:56:03.222Z,23.50
2022-08-09T08:01:13.678Z,23.80
2022-08-09T08:06:21.141Z,24.00
2022-08-09T08:12:10.953Z,24.30
2022-08-09T08:16:51.125Z,24.60
2022-08-09T08:22:04.657Z,24.90
2022-08-09T08:27:16.638Z,25.20
2022-08-09T08:32:28.728Z,25.40
2022-08-09T08:37:41.327Z,25.70
2022-08-09T08:42:58.914Z,26.00
2022-08-09T08:48:05.290Z,26.30
2022-08-09T08:53:15.820Z,26.50
2022-08-09T08:58:27.390Z,26.70
2022-08-09T09:03:37.564Z,26.90
2022-08-09T09:08:45.871Z,27.20
2022-08-09T09:13:58.754Z,27.40
2022-08-09T09:24:29.825Z,27.70
2022-08-09T09:30:05.315Z,27.80
2022-08-09T09:35:09.273Z,28.00
2022-08-09T09:40:13.271Z,28.10
2022-08-09T09:45:25.867Z,28.30
2022-08-09T09:50:49.784Z,28.40
2022-08-09T09:55:57.815Z,28.50
2022-08-09T10:01:30.930Z,28.60
2022-08-09T10:06:47.030Z,28.80
2022-08-09T10:12:12.081Z,28.90
2022-08-09T10:17:50.992Z,29.10
2022-08-09T10:22:44.376Z,29.20
2022-08-09T10:27:56.670Z,29.40
2022-08-09T10:33:01.506Z,29.50
2022-08-09T10:38:33.949Z,29.60
2022-08-09T10:43:46.753Z,29.70
2022-08-09T10:48:57.273Z,29.80
2022-08-09T10:54:12.369Z,29.90
2022-08-09T10:59:43.155Z,30.00
2022-08-09T11:05:25.441Z,30.10
2022-08-09T11:11:01.032Z,30.20
2022-08-09T11:16:36.061Z,30.20
2022-08-09T11:21:55.021Z,30.20
2022-08-09T11:28:03.201Z,30.20
2022-08-09T11:33:04.121Z,30.20
2022-08-09T11:38:16.598Z,30.20
2022-08-09T11:43:44.062Z,30.20
2022-08-09T11:48:49.430Z,30.30
2022-08-09T11:54:21.535Z,30.30
2022-08-09T11:59:35.260Z,30.30
2022-08-09T12:04:41.600Z,30.30
2022-08-09T12:09:50.335Z,30.30
2022-08-09T12:15:08.046Z,30.40
2022-08-09T12:20:16.468Z,30.40
2022-08-09T12:25:31.847Z,30.40
2022-08-09T12:30:43.153Z,30.40
2022-08-09T12:35:47.827Z,30.40
2022-08-09T12:40:54.100Z,30.40
2022-08-09T12:46:00.789Z,30.50
2022-08-09T12:51:04.555Z,30.60
2022-08-09T12:56:43.698Z,30.60
2022-08-09T13:01:46.948Z,30.60
2022-08-09T13:06:54.059Z,30.60
2022-08-09T13:12:07.467Z,30.60
2022-08-09T13:17:33.646Z,30.70
2022-08-09T13:23:00.366Z,30.60
2022-08-09T13:28:18.736Z,30.60
2022-08-09T13:33:52.828Z,30.70
2022-08-09T13:38:57.625Z,30.70
2022-08-09T13:44:05.531Z,30.70
2022-08-09T13:49:10.243Z,30.70
2022-08-09T13:54:21.744Z,30.80
2022-08-09T13:59:41.673Z,30.90
2022-08-09T14:04:49.547Z,30.90
2022-08-09T14:10:03.161Z,31.00
2022-08-09T14:16:06.944Z,31.00
2022-08-09T14:20:32.671Z,31.10
2022-08-09T14:25:42.867Z,31.10
2022-08-09T14:30:46.372Z,31.10
2022-08-09T14:35:53.386Z,31.10
2022-08-09T14:41:00.657Z,31.20
2022-08-09T14:46:55.587Z,31.20
2022-08-09T14:51:30.419Z,31.20
2022-08-09T14:56:57.458Z,31.20
2022-08-09T15:02:01.531Z,31.20
2022-08-09T15:07:10.062Z,31.30
2022-08-09T15:12:13.927Z,31.30
2022-08-09T15:17:17.087Z,31.30
2022-08-09T15:22:22.159Z,31.30
2022-08-09T15:27:29.522Z,31.30
2022-08-09T15:32:51.417Z,31.30
2022-08-09T15:38:11.148Z,31.30
2022-08-09T15:43:15.197Z,31.40
2022-08-09T15:48:29.321Z,31.50
2022-08-09T15:54:03.175Z,31.50
2022-08-09T15:59:00.045Z,31.50
2022-08-09T16:04:06.074Z,31.50
2022-08-09T16:09:18.189Z,31.50
2022-08-09T16:14:35.897Z,31.50
2022-08-09T16:19:49.442Z,31.50
2022-08-09T16:25:03.911Z,31.50
2022-08-09T16:30:15.004Z,31.50
2022-08-09T16:35:19.111Z,31.50
2022-08-09T16:40:43.711Z,31.60
2022-08-09T16:45:53.788Z,31.60
2022-08-09T16:50:59.832Z,31.60
2022-08-09T16:56:12.413Z,31.60
2022-08-09T17:01:15.793Z,31.60
2022-08-09T17:06:31.472Z,31.60
2022-08-09T17:11:41.555Z,31.60
2022-08-09T17:16:45.366Z,31.50
2022-08-09T17:21:48.532Z,31.50
2022-08-09T17:27:00.197Z,31.50
2022-08-09T17:32:03.354Z,31.50
2022-08-09T17:37:06.566Z,31.50
2022-08-09T17:42:41.505Z,31.40
2022-08-09T17:47:49.762Z,31.30
2022-08-09T17:52:58.199Z,31.20
2022-08-09T17:58:05.678Z,31.00
2022-08-09T18:03:12.962Z,30.90
2022-08-09T18:08:16.362Z,30.80
2022-08-09T18:13:39.208Z,30.60
2022-08-09T18:18:49.027Z,30.50
2022-08-09T18:24:11.629Z,30.40
2022-08-09T18:30:37.957Z,30.30
2022-08-09T18:34:40.765Z,30.10
2022-08-09T18:39:48.491Z,30.00
2022-08-09T18:44:53.296Z,29.90
2022-08-09T18:50:02.852Z,29.70
2022-08-09T18:55:13.650Z,29.60
2022-08-09T19:00:20.381Z,29.60
2022-08-09T19:05:48.844Z,29.50
2022-08-09T19:10:49.009Z,29.30
2022-08-09T19:15:56.629Z,29.10
2022-08-09T19:21:00.562Z,29.00
2022-08-09T19:26:05.160Z,28.80
2022-08-09T19:31:10.155Z,28.70
2022-08-09T19:36:13.633Z,28.50
2022-08-09T19:41:33.443Z,28.40
2022-08-09T19:46:49.325Z,28.30
2022-08-09T19:51:55.843Z,28.20
2022-08-09T19:57:00.096Z,28.10
2022-08-09T20:02:18.089Z,28.00
2022-08-09T20:07:49.682Z,27.90
2022-08-09T20:12:52.785Z,27.80
2022-08-09T20:17:59.244Z,27.80
2022-08-09T20:23:02.550Z,27.70
2022-08-09T20:28:06.154Z,27.60
2022-08-09T20:33:11.964Z,27.50
2022-08-09T20:38:21.049Z,27.40
2022-08-09T20:43:33.338Z,27.30
2022-08-09T20:48:39.749Z,27.20
2022-08-09T20:53:45.145Z,27.10
2022-08-09T20:58:54.468Z,26.90
2022-08-09T21:05:48.698Z,26.90
2022-08-09T21:09:41.756Z,26.80
2022-08-09T21:14:46.153Z,26.70
2022-08-09T21:20:19.303Z,26.60
2022-08-09T21:25:37.915Z,26.40
2022-08-09T21:30:42.354Z,26.30
2022-08-09T21:35:50.851Z,26.30
2022-08-09T21:40:55.325Z,26.10
2022-08-09T21:45:58.721Z,26.00
2022-08-09T21:51:03.304Z,25.90
2022-08-09T21:56:06.964Z,25.70
2022-08-09T22:01:59.313Z,25.60
2022-08-09T22:07:01.899Z,25.60
2022-08-09T22:12:18.505Z,25.50
2022-08-09T22:17:27.705Z,25.40
2022-08-09T22:22:36.793Z,25.30
2022-08-09T22:27:40.569Z,25.20
2022-08-09T22:32:45.469Z,25.10
2022-08-09T22:37:49.976Z,24.90
2022-08-09T22:43:16.803Z,24.90
2022-08-09T22:48:34.677Z,24.70
2022-08-09T22:53:58.317Z,24.60
2022-08-09T22:59:05.910Z,24.50
2022-08-09T23:04:32.848Z,24.30
2022-08-09T23:09:37.498Z,24.30
2022-08-09T23:14:42.216Z,24.10
2022-08-09T23:20:06.715Z,24.10
2022-08-09T23:25:11.736Z,24.00
2022-08-09T23:30:15.089Z,24.00
2022-08-09T23:35:18.249Z,23.90
2022-08-09T23:40:22.993Z,23.80
2022-08-09T23:45:36.893Z,23.70
2022-08-09T23:50:41.974Z,23.60
2022-08-09T23:55:49.824Z,23.50
